Time;durP1;ratioP1;P1;durP2;ratioP2;P2;SDS_P1;SDS_P2;PMS_P1;PMS_P2;Temp;Humidity;BMP_temperature;BMP_pressure;BME280_temperature;BME280_humidity;BME280_pressure;Samples;Min_cycle;Max_cycle;Signal;HPM_P1;HPM_P2
2022/06/19 00:00:24;;;;;;;;;;;;;;;;;;4964712;28;19921;-58
2022/06/19 00:02:50;;;;;;;;;;;;;;;;;;4949713;28;19929;-57
2022/06/19 00:05:19;;;;;;;;;;;;;;;;;;4964143;28;20832;-57
2022/06/19 00:07:44;;;;;;;;;;;;;;;;;;4944099;28;19926;-57
2022/06/19 00:10:10;;;;;;;;;;;;;;;;;;4963160;28;19976;-57
2022/06/19 00:12:35;;;;;;;;;;;;;;;;;;4962395;28;20015;-57
2022/06/19 00:15:03;;;;;;;;;;;;;;;;;;4959756;28;19957;-57
2022/06/19 00:17:28;;;;;;;;;;;;;;;;;;4963892;28;19918;-57
2022/06/19 00:19:53;;;;;;;;;;;;;;;;;;4949262;28;19928;-57
2022/06/19 00:22:21;;;;;;;;;;;;;;;;;;4960060;28;19932;-57
2022/06/19 00:24:48;;;;;;;;;;;;;;;;;;4965179;28;20532;-57
2022/06/19 00:27:14;;;;;;;;;;;;;;;;;;4963399;28;19991;-57
2022/06/19 00:29:43;;;;;;;;;;;;;;;;;;4963780;28;19918;-57
2022/06/19 00:32:29;;;;;;;;;;;;;;;;;;4961594;28;19928;-56
2022/06/19 00:34:57;;;;;;;;;;;;;;;;;;4943994;28;19922;-56
2022/06/19 00:37:27;;;;;;;;;;;;;;;;;;4962941;28;20028;-56
2022/06/19 00:39:52;;;;;;;;;;;;;;;;;;4964018;28;19960;-56
2022/06/19 00:42:18;;;;;;;;;;;;;;;;;;4958899;28;20646;-56
2022/06/19 00:44:46;;;;;;;;;;;;;;;;;;4956689;28;19960;-56
2022/06/19 00:47:13;;;;;;;;;;;;;;;;;;4962020;28;20013;-57
2022/06/19 00:49:39;;;;;;;;;;;;;;;;;;4962752;28;20311;-57
2022/06/19 00:52:04;;;;;;;;;;;;;;;;;;4961354;28;19922;-56
2022/06/19 00:54:29;;;;;;;;;;;;;;;;;;4962676;28;19929;-57
2022/06/19 00:56:57;;;;;;;;;;;;;;;;;;4962957;28;19921;-56
2022/06/19 00:59:23;;;;;;;;;;;;;;;;;;4962996;28;19925;-57
2022/06/19 01:01:48;;;;;;;;;;;;;;;;;;4964579;28;19980;-57
2022/06/19 01:04:18;;;;;;;;;;;;;;;;;;4948729;28;20024;-57
2022/06/19 01:06:48;;;;;;;;;;;;;;;;;;4976440;28;19926;-56
2022/06/19 01:09:15;;;;;;;;;;;;;;;;;;4964478;28;19944;-57
2022/06/19 01:11:43;;;;;;;;;;;;;;;;;;4962312;28;20004;-57
2022/06/19 01:14:11;;;;;;;;;;;;;;;;;;4964107;28;19968;-57
2022/06/19 01:16:39;;;;;;;;;;;;;;;;;;4936341;28;19972;-58
2022/06/19 01:19:06;;;;;;;;;;;;;;;;;;4960874;28;19928;-57
2022/06/19 01:21:31;;;;;;;;;;;;;;;;;;4963875;28;20009;-57
2022/06/19 01:23:59;;;;;;;;;;;;;;;;;;4961178;28;19925;-57
2022/06/19 01:26:27;;;;;;;;;;;;;;;;;;4958752;28;19933;-58
2022/06/19 01:28:56;;;;;;;;;;;;;;;;;;4960595;28;19922;-56
2022/06/19 01:31:22;;;;;;;;;;;;;;;;;;4962295;28;19980;-56
2022/06/19 01:33:49;;;;;;;;;;;;;;;;;;4962906;28;21061;-56
2022/06/19 01:36:14;;;;;;;;;;;;;;;;;;4963842;28;20183;-58
2022/06/19 01:38:40;;;;;;;;;;;;;;;;;;4962802;28;20056;-58
2022/06/19 01:41:08;;;;;;;;;;;;;;;;;;4962324;28;19972;-58
2022/06/19 01:43:34;;;;;;;;;;;;;;;;;;4961388;28;19984;-58
2022/06/19 01:45:59;;;;;;;;;;;;;;;;;;4960658;28;19933;-59
2022/06/19 01:48:25;;;;;;;;;;;;;;;;;;4940101;28;19936;-60
2022/06/19 01:50:55;;;;;;;;;;;;;;;;;;4963079;28;20574;-60
2022/06/19 01:53:20;;;;;;;;;;;;;;;;;;4956850;28;19918;-60
2022/06/19 01:55:46;;;;;;;;;;;;;;;;;;4961859;28;19976;-60
2022/06/19 01:58:13;;;;;;;;;;;;;;;;;;4962514;28;19922;-59
2022/06/19 02:00:39;;;;;;;;;;;;;;;;;;4956562;28;19928;-59
2022/06/19 02:03:04;;;;;;;;;;;;;;;;;;4963609;28;19922;-59
2022/06/19 02:05:30;;;;;;;;;;;;;;;;;;4966427;28;19925;-60
2022/06/19 02:07:55;;;;;;;;;;;;;;;;;;4964057;28;20007;-60
2022/06/19 02:10:20;;;;;;;;;;;;;;;;;;4960400;28;21078;-59
2022/06/19 02:12:46;;;;;;;;;;;;;;;;;;4977631;28;19921;-59
2022/06/19 02:15:12;;;;;;;;;;;;;;;;;;4967327;28;19918;-60
2022/06/19 02:17:37;;;;;;;;;;;;;;;;;;4944212;28;19926;-60
2022/06/19 02:20:03;;;;;;;;;;;;;;;;;;4966580;28;20037;-60
2022/06/19 02:22:28;;;;;;;;;;;;;;;;;;4966254;28;19972;-64
2022/06/19 02:24:56;;;;;;;;;;;;;;;;;;4963400;28;19922;-60
2022/06/19 02:27:22;;;;;;;;;;;;;;;;;;4965684;28;19976;-60
2022/06/19 02:29:52;;;;;;;;;;;;;;;;;;4965772;28;20029;-60
2022/06/19 02:32:19;;;;;;;;;;;;;;;;;;4965235;28;19932;-60
2022/06/19 02:34:48;;;;;;;;;;;;;;;;;;4966934;28;19980;-59
2022/06/19 02:37:14;;;;;;;;;;;;;;;;;;4950077;28;19921;-59
2022/06/19 02:39:42;;;;;;;;;;;;;;;;;;4966380;28;19933;-58
2022/06/19 02:42:07;;;;;;;;;;;;;;;;;;4966690;28;19922;-59
2022/06/19 02:44:32;;;;;;;;;;;;;;;;;;4962716;28;20069;-59
2022/06/19 02:46:58;;;;;;;;;;;;;;;;;;4963653;28;20739;-59
2022/06/19 02:49:25;;;;;;;;;;;;;;;;;;4966536;28;20420;-58
2022/06/19 02:51:51;;;;;;;;;;;;;;;;;;4964611;28;19934;-58
2022/06/19 02:54:16;;;;;;;;;;;;;;;;;;4965965;28;19930;-58
2022/06/19 02:56:42;;;;;;;;;;;;;;;;;;4958208;28;19918;-59
2022/06/19 02:59:09;;;;;;;;;;;;;;;;;;4967629;28;20331;-59
2022/06/19 03:01:40;;;;;;;;;;;;;;;;;;4951656;28;19918;-58
2022/06/19 03:04:06;;;;;;;;;;;;;;;;;;4965680;28;19921;-58
2022/06/19 03:06:36;;;;;;;;;;;;;;;;;;4966859;28;20432;-58
2022/06/19 03:09:05;;;;;;;;;;;;;;;;;;4965682;28;19922;-58
2022/06/19 03:11:32;;;;;;;;;;;;;;;;;;4965049;28;19922;-58
2022/06/19 03:14:00;;;;;;;;;;;;;;;;;;4959970;28;19921;-59
2022/06/19 03:16:26;;;;;;;;;;;;;;;;;;4964512;28;20289;-59
2022/06/19 03:18:54;;;;;;;;;;;;;;;;;;4963510;28;19922;-59
2022/06/19 03:21:19;;;;;;;;;;;;;;;;;;4964657;28;19918;-59
2022/06/19 03:23:45;;;;;;;;;;;;;;;;;;4965288;28;19962;-59
2022/06/19 03:26:11;;;;;;;;;;;;;;;;;;4961965;28;19922;-59
2022/06/19 03:28:38;;;;;;;;;;;;;;;;;;4965649;28;19953;-60
2022/06/19 03:31:04;;;;;;;;;;;;;;;;;;4965688;28;20013;-61
2022/06/19 03:33:29;;;;;;;;;;;;;;;;;;4942775;28;20345;-61
2022/06/19 03:35:54;;;;;;;;;;;;;;;;;;4963955;28;19922;-60
2022/06/19 03:38:20;;;;;;;;;;;;;;;;;;4962849;28;19940;-60
2022/06/19 03:40:45;;;;;;;;;;;;;;;;;;4966998;28;19995;-58
2022/06/19 03:43:14;;;;;;;;;;;;;;;;;;4962772;28;19921;-59
2022/06/19 03:45:44;;;;;;;;;;;;;;;;;;4948138;28;20389;-60
2022/06/19 03:48:09;;;;;;;;;;;;;;;;;;4965480;28;19925;-59
2022/06/19 03:50:34;;;;;;;;;;;;;;;;;;4975535;28;19930;-61
2022/06/19 03:53:02;;;;;;;;;;;;;;;;;;4959056;28;19921;-60
2022/06/19 03:55:27;;;;;;;;;;;;;;;;;;4965377;28;19929;-61
2022/06/19 03:57:55;;;;;;;;;;;;;;;;;;4963977;28;20012;-60
2022/06/19 04:00:21;;;;;;;;;;;;;;;;;;4958542;28;19996;-59
2022/06/19 04:02:46;;;;;;;;;;;;;;;;;;4964565;28;19922;-59
2022/06/19 04:05:18;;;;;;;;;;;;;;;;;;4964973;28;19953;-60
2022/06/19 04:07:46;;;;;;;;;;;;;;;;;;4964043;28;20032;-59
2022/06/19 04:10:14;;;;;;;;;;;;;;;;;;4962530;28;20051;-60
2022/06/19 04:12:39;;;;;;;;;;;;;;;;;;4963610;28;20509;-58
2022/06/19 04:15:09;;;;;;;;;;;;;;;;;;4961462;28;19945;-59
2022/06/19 04:17:34;;;;;;;;;;;;;;;;;;4956501;28;19917;-59
2022/06/19 04:20:00;;;;;;;;;;;;;;;;;;4958129;28;19941;-59
2022/06/19 04:22:26;;;;;;;;;;;;;;;;;;4963943;28;20056;-61
2022/06/19 04:24:51;;;;;;;;;;;;;;;;;;4961455;28;20314;-61
2022/06/19 04:27:17;;;;;;;;;;;;;;;;;;4962544;28;20017;-62
2022/06/19 04:29:42;;;;;;;;;;;;;;;;;;4964654;28;20313;-63
2022/06/19 04:32:08;;;;;;;;;;;;;;;;;;4963145;28;19959;-63
2022/06/19 04:34:33;;;;;;;;;;;;;;;;;;4962844;28;20311;-63
2022/06/19 04:36:59;;;;;;;;;;;;;;;;;;4961378;28;21590;-63
2022/06/19 04:39:24;;;;;;;;;;;;;;;;;;4957345;28;20905;-64
2022/06/19 04:41:50;;;;;;;;;;;;;;;;;;4964147;28;19929;-62
2022/06/19 04:44:15;;;;;;;;;;;;;;;;;;4961978;28;20012;-59
2022/06/19 04:46:41;;;;;;;;;;;;;;;;;;4961756;28;20011;-60
2022/06/19 04:49:07;;;;;;;;;;;;;;;;;;4962629;28;20009;-60
2022/06/19 04:51:32;;;;;;;;;;;;;;;;;;4961511;28;21815;-59
2022/06/19 04:54:00;;;;;;;;;;;;;;;;;;4963306;28;19976;-59
2022/06/19 04:56:28;;;;;;;;;;;;;;;;;;4964516;28;19917;-60
2022/06/19 04:58:53;;;;;;;;;;;;;;;;;;4960149;28;20384;-60
2022/06/19 05:01:21;;;;;;;;;;;;;;;;;;4946520;28;20012;-60
2022/06/19 05:03:48;;;;;;;;;;;;;;;;;;4963968;28;19926;-59
2022/06/19 05:06:14;;;;;;;;;;;;;;;;;;4961027;28;20297;-60
2022/06/19 05:08:41;;;;;;;;;;;;;;;;;;4948354;28;19967;-60
2022/06/19 05:11:07;;;;;;;;;;;;;;;;;;4961971;28;20071;-60
2022/06/19 05:13:35;;;;;;;;;;;;;;;;;;4959988;28;19929;-59
2022/06/19 05:16:00;;;;;;;;;;;;;;;;;;4962046;28;21808;-60
2022/06/19 05:18:26;;;;;;;;;;;;;;;;;;4964666;28;19917;-60
2022/06/19 05:20:51;;;;;;;;;;;;;;;;;;4956127;28;19926;-59
2022/06/19 05:23:19;;;;;;;;;;;;;;;;;;4964113;28;19922;-60
2022/06/19 05:25:44;;;;;;;;;;;;;;;;;;4961419;28;19928;-60
2022/06/19 05:28:12;;;;;;;;;;;;;;;;;;4961481;28;20423;-60
2022/06/19 05:30:39;;;;;;;;;;;;;;;;;;4962219;28;19921;-60
2022/06/19 05:33:05;;;;;;;;;;;;;;;;;;4946170;28;19977;-60
2022/06/19 05:35:30;;;;;;;;;;;;;;;;;;4962056;28;19921;-60
2022/06/19 05:37:55;;;;;;;;;;;;;;;;;;4938875;28;19929;-61
2022/06/19 05:40:21;;;;;;;;;;;;;;;;;;4970757;28;19922;-61
2022/06/19 05:42:48;;;;;;;;;;;;;;;;;;4969627;28;19933;-59
2022/06/19 05:45:14;;;;;;;;;;;;;;;;;;4964383;28;19925;-61
2022/06/19 05:47:39;;;;;;;;;;;;;;;;;;4962460;28;19928;-60
2022/06/19 05:50:04;;;;;;;;;;;;;;;;;;4964345;28;19929;-60
2022/06/19 05:52:30;;;;;;;;;;;;;;;;;;4945741;28;20359;-59
2022/06/19 05:54:55;;;;;;;;;;;;;;;;;;4966375;28;19964;-59
2022/06/19 05:57:21;;;;;;;;;;;;;;;;;;4967445;28;19925;-59
2022/06/19 05:59:48;;;;;;;;;;;;;;;;;;4963877;28;20372;-59
2022/06/19 06:02:16;;;;;;;;;;;;;;;;;;4966322;28;19929;-59
2022/06/19 06:04:41;;;;;;;;;;;;;;;;;;4966047;28;20992;-59
2022/06/19 06:07:07;;;;;;;;;;;;;;;;;;4958005;28;19930;-58
2022/06/19 06:09:37;;;;;;;;;;;;;;;;;;4966253;28;19921;-58
2022/06/19 06:12:03;;;;;;;;;;;;;;;;;;4945597;28;19978;-59
2022/06/19 06:14:31;;;;;;;;;;;;;;;;;;4966629;28;19918;-60
2022/06/19 06:16:56;;;;;;;;;;;;;;;;;;4964110;28;19917;-59
2022/06/19 06:19:21;;;;;;;;;;;;;;;;;;4963909;28;20361;-59
2022/06/19 06:21:47;;;;;;;;;;;;;;;;;;4964891;28;19980;-59
2022/06/19 06:24:13;;;;;;;;;;;;;;;;;;4965256;28;20109;-58
2022/06/19 06:26:38;;;;;;;;;;;;;;;;;;4970054;28;20013;-59
2022/06/19 06:29:07;;;;;;;;;;;;;;;;;;4968360;28;20006;-58
2022/06/19 06:31:33;;;;;;;;;;;;;;;;;;4964227;28;19942;-59
2022/06/19 06:34:01;;;;;;;;;;;;;;;;;;4965020;28;19922;-59
2022/06/19 06:36:30;;;;;;;;;;;;;;;;;;4968945;28;19922;-58
2022/06/19 06:38:55;;;;;;;;;;;;;;;;;;4968270;28;19922;-58
2022/06/19 06:41:24;;;;;;;;;;;;;;;;;;4967770;28;19933;-59
2022/06/19 06:43:49;;;;;;;;;;;;;;;;;;4963225;28;19922;-58
2022/06/19 06:46:20;;;;;;;;;;;;;;;;;;4965986;28;20442;-58
2022/06/19 06:48:46;;;;;;;;;;;;;;;;;;4963890;28;19969;-59
2022/06/19 06:51:11;;;;;;;;;;;;;;;;;;4964983;28;20030;-58
2022/06/19 06:53:38;;;;;;;;;;;;;;;;;;4949061;28;19926;-57
2022/06/19 06:56:09;;;;;;;;;;;;;;;;;;4968223;28;19922;-58
2022/06/19 06:58:38;;;;;;;;;;;;;;;;;;4966474;28;19956;-57
2022/06/19 07:01:06;;;;;;;;;;;;;;;;;;4964430;28;19924;-58
2022/06/19 07:03:31;;;;;;;;;;;;;;;;;;4963475;28;19921;-57
2022/06/19 07:05:59;;;;;;;;;;;;;;;;;;4965730;28;19932;-58
2022/06/19 07:08:27;;;;;;;;;;;;;;;;;;4962472;28;19922;-58
2022/06/19 07:10:55;;;;;;;;;;;;;;;;;;4964268;28;19922;-59
2022/06/19 07:13:23;;;;;;;;;;;;;;;;;;4950700;28;19918;-58
2022/06/19 07:16:03;;;;;;;;;;;;;;;;;;4959141;28;19928;-58
2022/06/19 07:18:33;;;;;;;;;;;;;;;;;;4964323;28;19999;-58
2022/06/19 07:21:01;;;;;;;;;;;;;;;;;;4958779;28;20403;-58
2022/06/19 07:23:27;;;;;;;;;;;;;;;;;;4962932;28;20858;-58
2022/06/19 07:25:54;;;;;;;;;;;;;;;;;;4966563;28;19926;-58
2022/06/19 07:28:20;;;;;;;;;;;;;;;;;;4967674;28;19960;-58
2022/06/19 07:30:48;;;;;;;;;;;;;;;;;;4958850;28;19922;-59
2022/06/19 07:33:14;;;;;;;;;;;;;;;;;;4962502;28;19922;-58
2022/06/19 07:35:40;;;;;;;;;;;;;;;;;;4966523;28;19957;-57
2022/06/19 07:38:08;;;;;;;;;;;;;;;;;;4963706;28;21818;-59
2022/06/19 07:40:36;;;;;;;;;;;;;;;;;;4965834;28;21145;-59
2022/06/19 07:43:01;;;;;;;;;;;;;;;;;;4967146;28;19925;-58
2022/06/19 07:45:26;;;;;;;;;;;;;;;;;;4963479;28;19932;-58
2022/06/19 07:50:38;;;;;;;;;;;;;;;;;;4964593;28;19959;-59
2022/06/19 07:53:05;;;;;;;;;;;;;;;;;;4962218;28;19917;-59
2022/06/19 07:55:31;;;;;;;;;;;;;;;;;;4967686;28;20799;-60
2022/06/19 07:57:59;;;;;;;;;;;;;;;;;;4967348;28;20645;-58
2022/06/19 08:00:25;;;;;;;;;;;;;;;;;;4967319;28;19922;-58
2022/06/19 08:02:51;;;;;;;;;;;;;;;;;;4965385;28;19977;-60
2022/06/19 08:05:17;;;;;;;;;;;;;;;;;;4961912;28;19973;-59
2022/06/19 08:07:44;;;;;;;;;;;;;;;;;;4974755;28;20226;-59
2022/06/19 08:10:10;;;;;;;;;;;;;;;;;;4962705;28;19925;-60
2022/06/19 08:12:39;;;;;;;;;;;;;;;;;;4961990;28;19973;-58
2022/06/19 08:15:24;;;;;;;;;;;;;;;;;;4965694;28;19922;-59
2022/06/19 08:17:49;;;;;;;;;;;;;;;;;;4958661;28;19922;-59
2022/06/19 08:20:16;;;;;;;;;;;;;;;;;;4963909;28;19929;-60
2022/06/19 08:22:41;;;;;;;;;;;;;;;;;;4962294;28;19924;-59
2022/06/19 08:25:06;;;;;;;;;;;;;;;;;;4962388;28;19921;-59
2022/06/19 08:27:32;;;;;;;;;;;;;;;;;;4959851;28;19925;-60
2022/06/19 08:29:57;;;;;;;;;;;;;;;;;;4960688;28;19921;-61
2022/06/19 08:32:25;;;;;;;;;;;;;;;;;;4939128;28;19921;-60
2022/06/19 08:34:50;;;;;;;;;;;;;;;;;;4960521;28;20440;-60
2022/06/19 08:37:15;;;;;;;;;;;;;;;;;;4959420;28;19918;-60
2022/06/19 08:39:40;;;;;;;;;;;;;;;;;;4961668;28;19968;-60
2022/06/19 08:42:06;;;;;;;;;;;;;;;;;;4953255;28;21682;-60
2022/06/19 08:44:34;;;;;;;;;;;;;;;;;;4959439;28;19945;-60
2022/06/19 08:47:01;;;;;;;;;;;;;;;;;;4958657;28;19925;-61
2022/06/19 08:49:27;;;;;;;;;;;;;;;;;;4955415;28;19980;-61
2022/06/19 08:51:54;;;;;;;;;;;;;;;;;;4935163;28;20113;-61
2022/06/19 08:54:20;;;;;;;;;;;;;;;;;;4956263;28;19959;-62
2022/06/19 08:56:45;;;;;;;;;;;;;;;;;;4957879;28;19950;-62
2022/06/19 08:59:10;;;;;;;;;;;;;;;;;;4964179;28;19921;-62
2022/06/19 09:01:35;;;;;;;;;;;;;;;;;;4955963;28;20591;-62
2022/06/19 09:06:50;;;;;;;;;;;;;;;;;;4956657;28;20055;-61
2022/06/19 09:09:15;;;;;;;;;;;;;;;;;;4954795;28;19922;-62
2022/06/19 09:11:43;;;;;;;;;;;;;;;;;;4961414;28;19922;-61
2022/06/19 09:14:08;;;;;;;;;;;;;;;;;;4964681;28;19972;-62
2022/06/19 09:16:34;;;;;;;;;;;;;;;;;;4959602;28;21264;-62
2022/06/19 09:19:00;;;;;;;;;;;;;;;;;;4964776;28;19921;-62
2022/06/19 09:21:27;;;;;;;;;;;;;;;;;;4950199;28;20954;-63
2022/06/19 09:23:55;;;;;;;;;;;;;;;;;;4966987;28;20007;-62
2022/06/19 09:26:20;;;;;;;;;;;;;;;;;;4967606;28;20556;-62
2022/06/19 09:28:46;;;;;;;;;;;;;;;;;;4965944;28;20008;-63
2022/06/19 09:31:13;;;;;;;;;;;;;;;;;;4966761;28;19922;-63
2022/06/19 09:33:42;;;;;;;;;;;;;;;;;;4962640;28;20020;-62
2022/06/19 09:36:09;;;;;;;;;;;;;;;;;;4948723;28;19929;-62
2022/06/19 09:38:35;;;;;;;;;;;;;;;;;;4964947;28;20012;-62
2022/06/19 09:41:00;;;;;;;;;;;;;;;;;;4964690;28;19922;-62
2022/06/19 09:43:28;;;;;;;;;;;;;;;;;;4957395;28;20926;-61
2022/06/19 09:45:54;;;;;;;;;;;;;;;;;;4961297;28;20000;-62
2022/06/19 09:48:19;;;;;;;;;;;;;;;;;;4973575;28;19953;-62
2022/06/19 09:50:44;;;;;;;;;;;;;;;;;;4965067;28;19941;-62
2022/06/19 09:53:09;;;;;;;;;;;;;;;;;;4963844;28;20281;-61
2022/06/19 09:55:35;;;;;;;;;;;;;;;;;;4960863;28;20126;-62
2022/06/19 09:58:00;;;;;;;;;;;;;;;;;;4961948;28;21958;-62
2022/06/19 10:00:26;;;;;;;;;;;;;;;;;;4962534;28;19922;-62
2022/06/19 10:02:54;;;;;;;;;;;;;;;;;;4962745;28;20016;-63
2022/06/19 10:05:19;;;;;;;;;;;;;;;;;;4959841;28;19921;-62
2022/06/19 10:07:53;;;;;;;;;;;;;;;;;;4958877;28;20055;-62
2022/06/19 10:10:21;;;;;;;;;;;;;;;;;;4958150;28;19918;-62
2022/06/19 10:12:51;;;;;;;;;;;;;;;;;;4957213;28;19918;-62
2022/06/19 10:15:16;;;;;;;;;;;;;;;;;;4962791;28;19921;-62
2022/06/19 10:17:44;;;;;;;;;;;;;;;;;;4962930;28;19929;-63
2022/06/19 10:20:09;;;;;;;;;;;;;;;;;;4962523;28;19921;-62
2022/06/19 10:22:37;;;;;;;;;;;;;;;;;;4962896;28;21314;-60
2022/06/19 10:25:03;;;;;;;;;;;;;;;;;;4956044;28;19932;-61
2022/06/19 10:27:33;;;;;;;;;;;;;;;;;;4964413;28;20867;-61
2022/06/19 10:30:00;;;;;;;;;;;;;;;;;;4962634;28;19922;-61
2022/06/19 10:32:28;;;;;;;;;;;;;;;;;;4960029;28;19918;-61
2022/06/19 10:34:55;;;;;;;;;;;;;;;;;;4963801;28;20309;-61
2022/06/19 10:37:27;;;;;;;;;;;;;;;;;;4956953;28;19921;-60
2022/06/19 10:39:52;;;;;;;;;;;;;;;;;;4962541;28;19917;-60
2022/06/19 10:42:18;;;;;;;;;;;;;;;;;;4960875;28;20020;-61
2022/06/19 10:44:43;;;;;;;;;;;;;;;;;;4941852;28;19925;-61
2022/06/19 10:47:09;;;;;;;;;;;;;;;;;;4961769;28;19933;-60
2022/06/19 10:49:37;;;;;;;;;;;;;;;;;;4954188;28;19956;-64
2022/06/19 10:52:04;;;;;;;;;;;;;;;;;;4959775;28;21266;-60
2022/06/19 10:54:30;;;;;;;;;;;;;;;;;;4963453;28;19932;-62
2022/06/19 10:56:58;;;;;;;;;;;;;;;;;;4961180;28;20344;-62
2022/06/19 10:59:25;;;;;;;;;;;;;;;;;;4960711;28;19922;-62
2022/06/19 11:04:42;;;;;;;;;;;;;;;;;;4954282;28;19928;-62
2022/06/19 11:07:07;;;;;;;;;;;;;;;;;;4960243;28;19929;-61
2022/06/19 11:09:33;;;;;;;;;;;;;;;;;;4960868;28;19918;-62
2022/06/19 11:11:58;;;;;;;;;;;;;;;;;;4964179;28;19975;-61
2022/06/19 11:14:24;;;;;;;;;;;;;;;;;;4955300;28;19996;-61
2022/06/19 11:16:49;;;;;;;;;;;;;;;;;;4953909;28;19984;-61
2022/06/19 11:19:14;;;;;;;;;;;;;;;;;;4959096;28;20416;-61
2022/06/19 11:21:40;;;;;;;;;;;;;;;;;;4959793;28;19921;-60
2022/06/19 11:24:07;;;;;;;;;;;;;;;;;;4960461;28;19926;-60
2022/06/19 11:26:35;;;;;;;;;;;;;;;;;;4960740;28;19933;-60
2022/06/19 11:29:03;;;;;;;;;;;;;;;;;;4971874;28;19925;-61
2022/06/19 11:31:29;;;;;;;;;;;;;;;;;;4958230;28;19984;-61
2022/06/19 11:33:54;;;;;;;;;;;;;;;;;;4957232;28;20397;-62
2022/06/19 11:36:20;;;;;;;;;;;;;;;;;;4960161;28;19922;-62
2022/06/19 11:38:49;;;;;;;;;;;;;;;;;;4961133;28;19922;-61
2022/06/19 11:41:15;;;;;;;;;;;;;;;;;;4961117;28;19921;-61
2022/06/19 11:43:43;;;;;;;;;;;;;;;;;;4963758;28;19918;-61
2022/06/19 11:46:08;;;;;;;;;;;;;;;;;;4963801;28;19949;-62
2022/06/19 11:48:34;;;;;;;;;;;;;;;;;;4957269;28;21792;-60
2022/06/19 11:50:59;;;;;;;;;;;;;;;;;;4959706;28;19930;-60
2022/06/19 11:53:25;;;;;;;;;;;;;;;;;;4948441;28;20377;-64
2022/06/19 11:55:53;;;;;;;;;;;;;;;;;;4963115;28;19918;-60
2022/06/19 11:58:37;;;;;;;;;;;;;;;;;;5042134;27;19929;-61
2022/06/19 12:01:02;;;;;;;;;;;;;;;;;;5023774;28;20650;-62
2022/06/19 12:03:28;;;;;;;;;;;;;;;;;;5030903;28;20495;-61
2022/06/19 12:05:53;;;;;;;;;;;;;;;;;;5041275;28;19960;-60
2022/06/19 12:08:21;;;;;;;;;;;;;;;;;;5022997;28;20565;-60
2022/06/19 12:10:49;;;;;;;;;;;;;;;;;;5029451;28;19921;-60
2022/06/19 12:13:14;;;;;;;;;;;;;;;;;;5029702;28;20408;-60
2022/06/19 12:15:39;;;;;;;;;;;;;;;;;;5010056;28;19925;-60
2022/06/19 12:18:05;;;;;;;;;;;;;;;;;;5027061;28;20308;-60
2022/06/19 12:20:32;;;;;;;;;;;;;;;;;;5031008;28;20320;-60
2022/06/19 12:22:58;;;;;;;;;;;;;;;;;;5027124;28;19929;-60
2022/06/19 12:25:23;;;;;;;;;;;;;;;;;;5036293;28;19991;-63
2022/06/19 12:27:49;;;;;;;;;;;;;;;;;;5034366;28;20587;-61
2022/06/19 12:30:18;;;;;;;;;;;;;;;;;;5033534;28;19921;-62
2022/06/19 12:32:44;;;;;;;;;;;;;;;;;;5010917;28;20414;-61
2022/06/19 12:35:09;;;;;;;;;;;;;;;;;;5025352;28;19920;-61
2022/06/19 12:37:35;;;;;;;;;;;;;;;;;;5025243;28;20335;-61
2022/06/19 12:40:01;;;;;;;;;;;;;;;;;;5020776;28;19948;-61
2022/06/19 12:42:26;;;;;;;;;;;;;;;;;;5024335;28;19917;-61
2022/06/19 12:44:52;;;;;;;;;;;;;;;;;;5030339;28;20039;-61
2022/06/19 12:47:18;;;;;;;;;;;;;;;;;;5026491;28;19959;-60
2022/06/19 12:49:45;;;;;;;;;;;;;;;;;;5027348;28;19920;-59
2022/06/19 12:52:11;;;;;;;;;;;;;;;;;;5020628;28;19947;-60
2022/06/19 12:54:36;;;;;;;;;;;;;;;;;;5025243;28;19924;-60
2022/06/19 12:57:01;;;;;;;;;;;;;;;;;;5027116;28;19935;-60
2022/06/19 12:59:27;;;;;;;;;;;;;;;;;;5026277;28;19924;-60
2022/06/19 13:01:52;;;;;;;;;;;;;;;;;;5023956;28;19924;-60
2022/06/19 13:04:20;;;;;;;;;;;;;;;;;;5026959;28;19944;-60
2022/06/19 13:06:47;;;;;;;;;;;;;;;;;;5024450;28;19917;-60
2022/06/19 13:09:13;;;;;;;;;;;;;;;;;;5017743;28;19967;-60
2022/06/19 13:11:38;;;;;;;;;;;;;;;;;;5012646;28;19929;-60
2022/06/19 13:14:04;;;;;;;;;;;;;;;;;;5013557;28;19946;-60
2022/06/19 13:16:31;;;;;;;;;;;;;;;;;;5011490;28;19921;-60
2022/06/19 13:18:57;;;;;;;;;;;;;;;;;;5011819;28;19971;-60
2022/06/19 13:21:23;;;;;;;;;;;;;;;;;;5020239;28;19925;-60
2022/06/19 13:23:48;;;;;;;;;;;;;;;;;;5019538;28;19917;-60
2022/06/19 13:27:10;;;;;;;;;;;;;;;;;;5020536;28;19992;-60
2022/06/19 13:29:02;;;;;;;;;;;;;;;;;;5018696;28;19921;-61
2022/06/19 13:31:27;;;;;;;;;;;;;;;;;;5017198;28;19991;-61
2022/06/19 13:34:00;;;;;;;;;;;;;;;;;;5015373;28;19962;-60
2022/06/19 13:36:25;;;;;;;;;;;;;;;;;;5013597;28;19921;-60
2022/06/19 13:38:53;;;;;;;;;;;;;;;;;;5014419;28;19940;-60
2022/06/19 13:41:18;;;;;;;;;;;;;;;;;;5022466;28;19920;-60
2022/06/19 13:43:44;;;;;;;;;;;;;;;;;;5020710;28;19967;-60
2022/06/19 13:46:09;;;;;;;;;;;;;;;;;;5003588;28;19921;-60
2022/06/19 13:48:34;;;;;;;;;;;;;;;;;;5000434;28;19974;-60
2022/06/19 13:50:59;;;;;;;;;;;;;;;;;;5003309;28;19955;-60
2022/06/19 13:56:49;;;;;;;;;;;;;;;;;;5011426;28;20355;-60
2022/06/19 13:59:15;;;;;;;;;;;;;;;;;;5015553;28;20718;-60
2022/06/19 14:01:45;;;;;;;;;;;;;;;;;;5016006;28;20032;-61
2022/06/19 14:06:57;;;;;;;;;;;;;;;;;;5015128;28;19917;-61
2022/06/19 14:09:22;;;;;;;;;;;;;;;;;;5014878;28;19962;-61
2022/06/19 14:12:07;;;;;;;;;;;;;;;;;;5021750;28;20019;-60
2022/06/19 14:14:34;;;;;;;;;;;;;;;;;;5020734;28;19921;-60
2022/06/19 14:17:01;;;;;;;;;;;;;;;;;;5022041;28;19932;-61
2022/06/19 14:19:26;;;;;;;;;;;;;;;;;;5023499;28;20371;-60
2022/06/19 14:21:54;;;;;;;;;;;;;;;;;;5015975;28;20851;-60
2022/06/19 14:24:19;;;;;;;;;;;;;;;;;;4993938;28;19927;-61
2022/06/19 14:26:45;;;;;;;;;;;;;;;;;;5023910;28;19921;-62
2022/06/19 14:29:11;;;;;;;;;;;;;;;;;;5023134;28;20458;-61
2022/06/19 14:31:38;;;;;;;;;;;;;;;;;;5024877;28;19921;-61
2022/06/19 14:34:06;;;;;;;;;;;;;;;;;;5015812;28;19921;-61
2022/06/19 14:36:34;;;;;;;;;;;;;;;;;;5022134;28;19952;-61
2022/06/19 14:39:01;;;;;;;;;;;;;;;;;;5019037;28;20055;-61
2022/06/19 14:41:29;;;;;;;;;;;;;;;;;;5024986;28;19920;-61
2022/06/19 14:43:56;;;;;;;;;;;;;;;;;;5004160;28;19989;-61
2022/06/19 14:46:23;;;;;;;;;;;;;;;;;;5039441;28;20636;-61
2022/06/19 14:48:48;;;;;;;;;;;;;;;;;;5037668;28;19927;-62
2022/06/19 14:51:16;;;;;;;;;;;;;;;;;;5004434;28;19916;-61
2022/06/19 14:53:41;;;;;;;;;;;;;;;;;;5022819;28;19970;-61
2022/06/19 14:56:10;;;;;;;;;;;;;;;;;;5022277;28;20164;-61
2022/06/19 14:58:40;;;;;;;;;;;;;;;;;;5020871;28;19921;-61
2022/06/19 15:01:08;;;;;;;;;;;;;;;;;;5022520;28;19920;-61
2022/06/19 15:03:34;;;;;;;;;;;;;;;;;;5021513;28;19922;-61
2022/06/19 15:05:59;;;;;;;;;;;;;;;;;;5034953;28;19933;-61
2022/06/19 15:08:26;;;;;;;;;;;;;;;;;;5000623;28;20000;-61
2022/06/19 15:10:52;;;;;;;;;;;;;;;;;;5020240;28;20406;-61
2022/06/19 15:13:20;;;;;;;;;;;;;;;;;;5022211;28;19971;-61
2022/06/19 15:15:47;;;;;;;;;;;;;;;;;;5019615;28;19949;-61
2022/06/19 15:18:13;;;;;;;;;;;;;;;;;;5021221;28;19925;-61
2022/06/19 15:20:41;;;;;;;;;;;;;;;;;;5018690;28;20805;-61
2022/06/19 15:23:09;;;;;;;;;;;;;;;;;;5002691;28;19921;-61
2022/06/19 15:25:34;;;;;;;;;;;;;;;;;;5021185;28;20037;-61
2022/06/19 15:27:59;;;;;;;;;;;;;;;;;;5015282;28;20429;-62
2022/06/19 15:30:25;;;;;;;;;;;;;;;;;;5023402;28;19920;-62
2022/06/19 15:32:50;;;;;;;;;;;;;;;;;;5018693;28;19921;-61
2022/06/19 15:35:17;;;;;;;;;;;;;;;;;;5019769;28;20600;-62
2022/06/19 15:37:43;;;;;;;;;;;;;;;;;;5019535;28;19936;-63
2022/06/19 15:40:10;;;;;;;;;;;;;;;;;;5030284;28;19920;-63
2022/06/19 15:42:36;;;;;;;;;;;;;;;;;;5022257;28;19936;-62
2022/06/19 15:45:02;;;;;;;;;;;;;;;;;;5019610;28;19925;-61
2022/06/19 15:47:29;;;;;;;;;;;;;;;;;;5022636;28;20604;-62
2022/06/19 15:49:55;;;;;;;;;;;;;;;;;;5020506;28;19943;-62
2022/06/19 15:52:20;;;;;;;;;;;;;;;;;;5020108;28;20284;-62
2022/06/19 15:54:45;;;;;;;;;;;;;;;;;;5019563;28;19920;-62
2022/06/19 15:57:11;;;;;;;;;;;;;;;;;;5017419;28;19921;-62
2022/06/19 15:59:36;;;;;;;;;;;;;;;;;;5020035;28;19943;-62
2022/06/19 16:02:03;;;;;;;;;;;;;;;;;;5020591;28;19928;-62
2022/06/19 16:04:28;;;;;;;;;;;;;;;;;;5022216;28;19924;-62
2022/06/19 16:06:56;;;;;;;;;;;;;;;;;;5014077;28;19920;-62
2022/06/19 16:09:24;;;;;;;;;;;;;;;;;;5017939;28;20259;-62
2022/06/19 16:11:52;;;;;;;;;;;;;;;;;;5021305;28;20027;-61
2022/06/19 16:14:20;;;;;;;;;;;;;;;;;;5020981;28;19921;-61
2022/06/19 16:16:45;;;;;;;;;;;;;;;;;;5020331;28;20070;-60
2022/06/19 16:19:11;;;;;;;;;;;;;;;;;;5022575;28;19925;-62
2022/06/19 16:21:38;;;;;;;;;;;;;;;;;;5018342;28;20036;-61
2022/06/19 16:24:04;;;;;;;;;;;;;;;;;;5020443;28;20860;-61
2022/06/19 16:26:29;;;;;;;;;;;;;;;;;;5017459;28;19921;-62
2022/06/19 16:28:54;;;;;;;;;;;;;;;;;;5020373;28;20372;-61
2022/06/19 16:31:22;;;;;;;;;;;;;;;;;;5021659;28;20016;-61
2022/06/19 16:33:48;;;;;;;;;;;;;;;;;;5019789;28;20380;-61
2022/06/19 16:44:30;;;;;;;;;;;;;;;;;;5023116;28;19995;-61
2022/06/19 16:46:56;;;;;;;;;;;;;;;;;;5026184;28;20054;-61
2022/06/19 16:49:21;;;;;;;;;;;;;;;;;;5005943;28;19925;-61
2022/06/19 16:51:51;;;;;;;;;;;;;;;;;;5023063;28;19921;-61
2022/06/19 16:54:26;;;;;;;;;;;;;;;;;;5021554;28;19929;-61
2022/06/19 16:56:51;;;;;;;;;;;;;;;;;;5025589;28;19925;-61
2022/06/19 16:59:17;;;;;;;;;;;;;;;;;;5021427;28;20470;-63
2022/06/19 17:01:42;;;;;;;;;;;;;;;;;;5023026;28;19924;-60
2022/06/19 17:04:08;;;;;;;;;;;;;;;;;;5025456;28;19917;-61